sensor_id;sensor_type;location;lat;lon;timestamp;P1;durP1;ratioP1;P2;durP2;ratioP2
78148;SDS011;67396;42.664;23.382;2023-09-19T00:02:17;7.20;;;4.30;;
78148;SDS011;67396;42.664;23.382;2023-09-19T00:04:42;6.43;;;3.97;;
78148;SDS011;67396;42.664;23.382;2023-09-19T00:07:08;9.32;;;3.88;;
78148;SDS011;67396;42.664;23.382;2023-09-19T00:09:34;6.78;;;3.72;;
78148;SDS011;67396;42.664;23.382;2023-09-19T00:12:05;5.75;;;4.35;;
78148;SDS011;67396;42.664;23.382;2023-09-19T00:14:32;5.53;;;3.90;;
78148;SDS011;67396;42.664;23.382;2023-09-19T00:17:03;7.50;;;3.97;;
78148;SDS011;67396;42.664;23.382;2023-09-19T00:19:33;8.13;;;4.40;;
78148;SDS011;67396;42.664;23.382;2023-09-19T00:22:00;8.00;;;4.30;;
78148;SDS011;67396;42.664;23.382;2023-09-19T00:24:26;5.45;;;4.07;;
78148;SDS011;67396;42.664;23.382;2023-09-19T00:26:53;8.02;;;3.92;;
78148;SDS011;67396;42.664;23.382;2023-09-19T00:29:19;12.65;;;4.75;;
78148;SDS011;67396;42.664;23.382;2023-09-19T00:31:44;11.18;;;4.53;;
78148;SDS011;67396;42.664;23.382;2023-09-19T00:34:10;8.13;;;4.43;;
78148;SDS011;67396;42.664;23.382;2023-09-19T00:36:36;8.43;;;4.18;;
78148;SDS011;67396;42.664;23.382;2023-09-19T00:39:06;9.27;;;4.47;;
78148;SDS011;67396;42.664;23.382;2023-09-19T00:41:34;6.63;;;4.15;;
78148;SDS011;67396;42.664;23.382;2023-09-19T00:44:03;8.23;;;4.25;;
78148;SDS011;67396;42.664;23.382;2023-09-19T00:46:29;11.02;;;4.65;;
78148;SDS011;67396;42.664;23.382;2023-09-19T00:48:57;6.05;;;4.15;;
78148;SDS011;67396;42.664;23.382;2023-09-19T00:51:24;7.18;;;4.22;;
78148;SDS011;67396;42.664;23.382;2023-09-19T00:53:51;6.55;;;4.22;;
78148;SDS011;67396;42.664;23.382;2023-09-19T00:56:17;10.85;;;4.25;;
78148;SDS011;67396;42.664;23.382;2023-09-19T00:58:44;10.13;;;4.47;;
78148;SDS011;67396;42.664;23.382;2023-09-19T01:01:11;7.80;;;4.35;;
78148;SDS011;67396;42.664;23.382;2023-09-19T01:03:39;9.75;;;4.65;;
78148;SDS011;67396;42.664;23.382;2023-09-19T01:06:06;7.47;;;5.68;;
78148;SDS011;67396;42.664;23.382;2023-09-19T01:08:32;7.60;;;4.82;;
78148;SDS011;67396;42.664;23.382;2023-09-19T01:11:01;10.18;;;4.60;;
78148;SDS011;67396;42.664;23.382;2023-09-19T01:13:47;9.43;;;5.00;;
78148;SDS011;67396;42.664;23.382;2023-09-19T01:22:15;8.18;;;4.88;;
78148;SDS011;67396;42.664;23.382;2023-09-19T01:27:46;6.38;;;4.10;;
78148;SDS011;67396;42.664;23.382;2023-09-19T01:30:17;9.50;;;4.55;;
78148;SDS011;67396;42.664;23.382;2023-09-19T01:32:50;8.80;;;5.18;;
78148;SDS011;67396;42.664;23.382;2023-09-19T01:35:17;7.38;;;5.00;;
78148;SDS011;67396;42.664;23.382;2023-09-19T01:37:43;8.40;;;4.97;;
78148;SDS011;67396;42.664;23.382;2023-09-19T01:40:09;7.72;;;5.00;;
78148;SDS011;67396;42.664;23.382;2023-09-19T01:42:57;9.18;;;4.60;;
78148;SDS011;67396;42.664;23.382;2023-09-19T01:45:40;12.40;;;4.55;;
78148;SDS011;67396;42.664;23.382;2023-09-19T01:51:21;9.05;;;4.65;;
78148;SDS011;67396;42.664;23.382;2023-09-19T01:54:05;9.18;;;4.85;;
78148;SDS011;67396;42.664;23.382;2023-09-19T01:56:43;9.55;;;5.30;;
78148;SDS011;67396;42.664;23.382;2023-09-19T01:59:21;10.68;;;4.50;;
78148;SDS011;67396;42.664;23.382;2023-09-19T02:01:52;9.10;;;4.88;;
78148;SDS011;67396;42.664;23.382;2023-09-19T02:04:19;7.80;;;4.47;;
78148;SDS011;67396;42.664;23.382;2023-09-19T02:06:45;10.73;;;5.18;;
78148;SDS011;67396;42.664;23.382;2023-09-19T02:09:12;6.82;;;4.03;;
78148;SDS011;67396;42.664;23.382;2023-09-19T02:11:39;7.57;;;4.43;;
78148;SDS011;67396;42.664;23.382;2023-09-19T02:14:06;7.00;;;3.88;;
78148;SDS011;67396;42.664;23.382;2023-09-19T02:16:33;9.23;;;4.30;;
78148;SDS011;67396;42.664;23.382;2023-09-19T02:18:59;7.90;;;4.47;;
78148;SDS011;67396;42.664;23.382;2023-09-19T02:21:25;8.65;;;4.50;;
78148;SDS011;67396;42.664;23.382;2023-09-19T02:23:54;9.68;;;5.25;;
78148;SDS011;67396;42.664;23.382;2023-09-19T02:26:20;11.02;;;4.60;;
78148;SDS011;67396;42.664;23.382;2023-09-19T02:28:47;7.20;;;4.63;;
78148;SDS011;67396;42.664;23.382;2023-09-19T02:31:12;7.50;;;5.03;;
78148;SDS011;67396;42.664;23.382;2023-09-19T02:33:38;7.75;;;4.43;;
78148;SDS011;67396;42.664;23.382;2023-09-19T02:36:03;9.93;;;4.68;;
78148;SDS011;67396;42.664;23.382;2023-09-19T02:38:29;7.45;;;4.97;;
78148;SDS011;67396;42.664;23.382;2023-09-19T02:40:55;8.23;;;4.50;;
78148;SDS011;67396;42.664;23.382;2023-09-19T02:43:21;7.60;;;4.65;;
78148;SDS011;67396;42.664;23.382;2023-09-19T02:45:47;7.00;;;4.47;;
78148;SDS011;67396;42.664;23.382;2023-09-19T02:48:20;9.23;;;4.93;;
78148;SDS011;67396;42.664;23.382;2023-09-19T02:50:46;6.85;;;4.38;;
78148;SDS011;67396;42.664;23.382;2023-09-19T02:53:14;5.63;;;3.95;;
78148;SDS011;67396;42.664;23.382;2023-09-19T02:55:40;6.95;;;4.82;;
78148;SDS011;67396;42.664;23.382;2023-09-19T02:58:05;7.95;;;5.32;;
78148;SDS011;67396;42.664;23.382;2023-09-19T03:00:37;10.45;;;5.35;;
78148;SDS011;67396;42.664;23.382;2023-09-19T03:03:02;7.40;;;4.53;;
78148;SDS011;67396;42.664;23.382;2023-09-19T03:05:29;10.05;;;5.05;;
78148;SDS011;67396;42.664;23.382;2023-09-19T03:07:58;10.57;;;4.93;;
78148;SDS011;67396;42.664;23.382;2023-09-19T03:10:26;7.93;;;4.57;;
78148;SDS011;67396;42.664;23.382;2023-09-19T03:12:53;6.90;;;4.13;;
78148;SDS011;67396;42.664;23.382;2023-09-19T03:15:18;10.05;;;4.60;;
78148;SDS011;67396;42.664;23.382;2023-09-19T03:17:44;6.93;;;4.50;;
78148;SDS011;67396;42.664;23.382;2023-09-19T03:20:11;8.73;;;4.43;;
78148;SDS011;67396;42.664;23.382;2023-09-19T03:22:42;8.25;;;5.72;;
78148;SDS011;67396;42.664;23.382;2023-09-19T03:25:11;9.98;;;5.28;;
78148;SDS011;67396;42.664;23.382;2023-09-19T03:27:38;8.50;;;5.38;;
78148;SDS011;67396;42.664;23.382;2023-09-19T03:30:04;8.98;;;5.18;;
78148;SDS011;67396;42.664;23.382;2023-09-19T03:32:34;7.40;;;5.05;;
78148;SDS011;67396;42.664;23.382;2023-09-19T03:35:08;10.68;;;6.10;;
78148;SDS011;67396;42.664;23.382;2023-09-19T03:37:34;8.57;;;5.15;;
78148;SDS011;67396;42.664;23.382;2023-09-19T03:39:59;8.45;;;4.97;;
78148;SDS011;67396;42.664;23.382;2023-09-19T03:42:29;6.55;;;4.80;;
78148;SDS011;67396;42.664;23.382;2023-09-19T03:44:56;8.52;;;5.30;;
78148;SDS011;67396;42.664;23.382;2023-09-19T03:47:22;13.98;;;5.75;;
78148;SDS011;67396;42.664;23.382;2023-09-19T03:49:47;7.60;;;4.82;;
78148;SDS011;67396;42.664;23.382;2023-09-19T03:52:13;9.27;;;5.40;;
78148;SDS011;67396;42.664;23.382;2023-09-19T03:54:40;10.35;;;6.03;;
78148;SDS011;67396;42.664;23.382;2023-09-19T03:57:06;9.57;;;5.63;;
78148;SDS011;67396;42.664;23.382;2023-09-19T03:59:32;8.90;;;5.68;;
78148;SDS011;67396;42.664;23.382;2023-09-19T04:02:01;8.90;;;5.43;;
78148;SDS011;67396;42.664;23.382;2023-09-19T04:04:27;9.07;;;4.60;;
78148;SDS011;67396;42.664;23.382;2023-09-19T04:06:56;9.40;;;5.25;;
78148;SDS011;67396;42.664;23.382;2023-09-19T04:09:23;11.38;;;5.40;;
78148;SDS011;67396;42.664;23.382;2023-09-19T04:11:48;8.48;;;5.35;;
78148;SDS011;67396;42.664;23.382;2023-09-19T04:14:15;11.10;;;5.63;;
78148;SDS011;67396;42.664;23.382;2023-09-19T04:16:40;8.23;;;5.35;;
78148;SDS011;67396;42.664;23.382;2023-09-19T04:19:06;10.75;;;5.85;;
78148;SDS011;67396;42.664;23.382;2023-09-19T04:21:31;13.05;;;5.07;;
78148;SDS011;67396;42.664;23.382;2023-09-19T04:23:57;13.15;;;6.25;;
78148;SDS011;67396;42.664;23.382;2023-09-19T04:26:26;13.75;;;6.22;;
78148;SDS011;67396;42.664;23.382;2023-09-19T04:28:52;10.85;;;6.60;;
78148;SDS011;67396;42.664;23.382;2023-09-19T04:31:17;14.85;;;6.85;;
78148;SDS011;67396;42.664;23.382;2023-09-19T04:33:44;8.68;;;5.35;;
78148;SDS011;67396;42.664;23.382;2023-09-19T04:36:10;9.23;;;6.43;;
78148;SDS011;67396;42.664;23.382;2023-09-19T04:38:35;13.10;;;6.18;;
78148;SDS011;67396;42.664;23.382;2023-09-19T04:41:01;13.57;;;6.25;;
78148;SDS011;67396;42.664;23.382;2023-09-19T04:43:27;15.65;;;6.72;;
78148;SDS011;67396;42.664;23.382;2023-09-19T04:45:53;13.10;;;7.13;;
78148;SDS011;67396;42.664;23.382;2023-09-19T04:48:21;13.32;;;7.18;;
78148;SDS011;67396;42.664;23.382;2023-09-19T04:50:49;13.27;;;7.25;;
78148;SDS011;67396;42.664;23.382;2023-09-19T04:53:14;15.52;;;7.43;;
78148;SDS011;67396;42.664;23.382;2023-09-19T04:55:40;17.42;;;8.32;;
78148;SDS011;67396;42.664;23.382;2023-09-19T04:58:06;15.93;;;8.48;;
78148;SDS011;67396;42.664;23.382;2023-09-19T05:00:31;14.48;;;7.75;;
78148;SDS011;67396;42.664;23.382;2023-09-19T05:03:00;18.88;;;8.40;;
78148;SDS011;67396;42.664;23.382;2023-09-19T05:05:26;14.38;;;7.97;;
78148;SDS011;67396;42.664;23.382;2023-09-19T05:07:51;19.55;;;8.35;;
78148;SDS011;67396;42.664;23.382;2023-09-19T05:10:19;16.23;;;8.20;;
78148;SDS011;67396;42.664;23.382;2023-09-19T05:12:45;20.42;;;9.02;;
78148;SDS011;67396;42.664;23.382;2023-09-19T05:15:12;15.88;;;8.82;;
78148;SDS011;67396;42.664;23.382;2023-09-19T05:17:48;13.48;;;6.75;;
78148;SDS011;67396;42.664;23.382;2023-09-19T05:20:15;12.50;;;7.13;;
78148;SDS011;67396;42.664;23.382;2023-09-19T05:22:49;12.43;;;6.82;;
78148;SDS011;67396;42.664;23.382;2023-09-19T05:25:15;11.88;;;6.72;;
78148;SDS011;67396;42.664;23.382;2023-09-19T05:27:43;9.05;;;5.57;;
78148;SDS011;67396;42.664;23.382;2023-09-19T05:30:09;10.73;;;5.90;;
78148;SDS011;67396;42.664;23.382;2023-09-19T05:32:35;9.98;;;5.43;;
78148;SDS011;67396;42.664;23.382;2023-09-19T05:35:00;11.95;;;6.05;;
78148;SDS011;67396;42.664;23.382;2023-09-19T05:37:26;13.68;;;5.30;;
78148;SDS011;67396;42.664;23.382;2023-09-19T05:39:51;8.50;;;4.90;;
78148;SDS011;67396;42.664;23.382;2023-09-19T05:42:18;9.38;;;4.50;;
78148;SDS011;67396;42.664;23.382;2023-09-19T05:44:49;11.30;;;4.85;;
78148;SDS011;67396;42.664;23.382;2023-09-19T05:47:17;11.18;;;4.85;;
78148;SDS011;67396;42.664;23.382;2023-09-19T05:49:43;9.10;;;5.25;;
78148;SDS011;67396;42.664;23.382;2023-09-19T05:52:09;11.00;;;4.80;;
78148;SDS011;67396;42.664;23.382;2023-09-19T05:54:34;7.25;;;5.32;;
78148;SDS011;67396;42.664;23.382;2023-09-19T05:57:18;10.18;;;5.38;;
78148;SDS011;67396;42.664;23.382;2023-09-19T05:59:44;13.75;;;5.10;;
78148;SDS011;67396;42.664;23.382;2023-09-19T06:02:10;9.63;;;5.07;;
78148;SDS011;67396;42.664;23.382;2023-09-19T06:04:37;8.23;;;4.55;;
78148;SDS011;67396;42.664;23.382;2023-09-19T06:07:05;11.10;;;4.82;;
78148;SDS011;67396;42.664;23.382;2023-09-19T06:09:31;10.85;;;5.22;;
78148;SDS011;67396;42.664;23.382;2023-09-19T06:11:57;8.43;;;4.85;;
78148;SDS011;67396;42.664;23.382;2023-09-19T06:14:23;8.00;;;4.97;;
78148;SDS011;67396;42.664;23.382;2023-09-19T06:16:52;7.68;;;4.88;;
78148;SDS011;67396;42.664;23.382;2023-09-19T06:19:20;9.60;;;5.45;;
78148;SDS011;67396;42.664;23.382;2023-09-19T06:21:48;11.38;;;4.65;;
78148;SDS011;67396;42.664;23.382;2023-09-19T06:24:14;10.57;;;5.55;;
78148;SDS011;67396;42.664;23.382;2023-09-19T06:26:40;9.18;;;5.40;;
78148;SDS011;67396;42.664;23.382;2023-09-19T06:29:05;14.85;;;5.20;;
78148;SDS011;67396;42.664;23.382;2023-09-19T06:31:32;8.77;;;5.80;;
78148;SDS011;67396;42.664;23.382;2023-09-19T06:33:59;10.35;;;5.05;;
78148;SDS011;67396;42.664;23.382;2023-09-19T06:36:25;6.78;;;4.50;;
78148;SDS011;67396;42.664;23.382;2023-09-19T06:38:50;10.52;;;5.32;;
78148;SDS011;67396;42.664;23.382;2023-09-19T06:41:18;9.85;;;5.82;;
78148;SDS011;67396;42.664;23.382;2023-09-19T06:43:44;13.40;;;5.85;;
78148;SDS011;67396;42.664;23.382;2023-09-19T06:46:10;9.13;;;4.80;;
78148;SDS011;67396;42.664;23.382;2023-09-19T06:48:37;9.68;;;5.35;;
78148;SDS011;67396;42.664;23.382;2023-09-19T06:51:03;8.30;;;4.97;;
78148;SDS011;67396;42.664;23.382;2023-09-19T06:53:29;14.07;;;5.53;;
78148;SDS011;67396;42.664;23.382;2023-09-19T06:55:57;8.43;;;5.00;;
78148;SDS011;67396;42.664;23.382;2023-09-19T06:58:22;15.73;;;5.78;;
78148;SDS011;67396;42.664;23.382;2023-09-19T07:00:48;11.27;;;5.72;;
78148;SDS011;67396;42.664;23.382;2023-09-19T07:03:15;7.10;;;4.38;;
78148;SDS011;67396;42.664;23.382;2023-09-19T07:05:47;7.38;;;4.93;;
78148;SDS011;67396;42.664;23.382;2023-09-19T07:08:13;12.88;;;5.50;;
78148;SDS011;67396;42.664;23.382;2023-09-19T07:10:39;11.80;;;5.00;;
78148;SDS011;67396;42.664;23.382;2023-09-19T07:13:06;12.55;;;5.57;;
78148;SDS011;67396;42.664;23.382;2023-09-19T07:15:36;9.57;;;6.30;;
78148;SDS011;67396;42.664;23.382;2023-09-19T07:18:11;9.82;;;5.00;;
78148;SDS011;67396;42.664;23.382;2023-09-19T07:20:39;8.05;;;4.65;;
78148;SDS011;67396;42.664;23.382;2023-09-19T07:25:40;7.45;;;4.88;;
78148;SDS011;67396;42.664;23.382;2023-09-19T07:28:06;9.73;;;5.22;;
78148;SDS011;67396;42.664;23.382;2023-09-19T07:30:31;9.25;;;4.80;;
78148;SDS011;67396;42.664;23.382;2023-09-19T07:32:57;10.73;;;4.72;;
78148;SDS011;67396;42.664;23.382;2023-09-19T07:35:22;9.82;;;5.25;;
78148;SDS011;67396;42.664;23.382;2023-09-19T07:37:49;9.00;;;4.78;;
78148;SDS011;67396;42.664;23.382;2023-09-19T07:40:15;14.70;;;6.45;;
78148;SDS011;67396;42.664;23.382;2023-09-19T07:42:41;11.27;;;4.97;;
78148;SDS011;67396;42.664;23.382;2023-09-19T07:45:07;10.07;;;6.40;;
78148;SDS011;67396;42.664;23.382;2023-09-19T07:47:33;12.57;;;6.50;;
78148;SDS011;67396;42.664;23.382;2023-09-19T07:49:59;9.13;;;5.32;;
78148;SDS011;67396;42.664;23.382;2023-09-19T07:52:27;11.70;;;5.30;;
78148;SDS011;67396;42.664;23.382;2023-09-19T07:54:54;8.07;;;5.00;;
78148;SDS011;67396;42.664;23.382;2023-09-19T07:57:19;6.38;;;4.00;;
78148;SDS011;67396;42.664;23.382;2023-09-19T07:59:45;14.20;;;5.10;;
78148;SDS011;67396;42.664;23.382;2023-09-19T08:02:11;6.38;;;4.60;;
78148;SDS011;67396;42.664;23.382;2023-09-19T08:04:44;8.27;;;5.13;;
78148;SDS011;67396;42.664;23.382;2023-09-19T08:07:14;7.70;;;3.92;;
78148;SDS011;67396;42.664;23.382;2023-09-19T08:09:39;8.07;;;4.65;;
78148;SDS011;67396;42.664;23.382;2023-09-19T08:12:05;13.43;;;5.18;;
78148;SDS011;67396;42.664;23.382;2023-09-19T08:14:35;11.35;;;5.70;;
78148;SDS011;67396;42.664;23.382;2023-09-19T08:17:01;9.25;;;4.25;;
78148;SDS011;67396;42.664;23.382;2023-09-19T08:19:27;12.48;;;5.53;;
78148;SDS011;67396;42.664;23.382;2023-09-19T08:21:57;24.38;;;7.78;;
78148;SDS011;67396;42.664;23.382;2023-09-19T08:24:27;8.52;;;4.93;;
78148;SDS011;67396;42.664;23.382;2023-09-19T08:26:54;7.55;;;4.25;;
78148;SDS011;67396;42.664;23.382;2023-09-19T08:29:21;10.25;;;4.65;;
78148;SDS011;67396;42.664;23.382;2023-09-19T08:31:52;9.32;;;4.65;;
78148;SDS011;67396;42.664;23.382;2023-09-19T08:34:21;10.48;;;4.85;;
78148;SDS011;67396;42.664;23.382;2023-09-19T08:36:48;18.98;;;4.45;;
78148;SDS011;67396;42.664;23.382;2023-09-19T08:39:15;12.52;;;5.03;;
78148;SDS011;67396;42.664;23.382;2023-09-19T08:41:42;8.00;;;4.50;;
78148;SDS011;67396;42.664;23.382;2023-09-19T08:44:07;10.43;;;5.35;;
78148;SDS011;67396;42.664;23.382;2023-09-19T08:46:35;10.35;;;4.88;;
78148;SDS011;67396;42.664;23.382;2023-09-19T08:52:55;7.57;;;4.30;;
78148;SDS011;67396;42.664;23.382;2023-09-19T08:55:06;14.25;;;5.28;;
78148;SDS011;67396;42.664;23.382;2023-09-19T08:57:36;11.65;;;5.57;;
78148;SDS011;67396;42.664;23.382;2023-09-19T09:00:07;10.45;;;4.72;;
78148;SDS011;67396;42.664;23.382;2023-09-19T09:02:40;7.75;;;4.85;;
78148;SDS011;67396;42.664;23.382;2023-09-19T09:05:08;12.68;;;5.00;;
78148;SDS011;67396;42.664;23.382;2023-09-19T09:07:38;8.52;;;4.18;;
78148;SDS011;67396;42.664;23.382;2023-09-19T09:10:06;12.13;;;4.55;;
78148;SDS011;67396;42.664;23.382;2023-09-19T09:12:36;8.77;;;4.88;;
78148;SDS011;67396;42.664;23.382;2023-09-19T09:15:06;9.40;;;4.72;;
78148;SDS011;67396;42.664;23.382;2023-09-19T09:17:34;8.68;;;4.80;;
78148;SDS011;67396;42.664;23.382;2023-09-19T09:19:59;8.32;;;4.63;;
78148;SDS011;67396;42.664;23.382;2023-09-19T09:22:25;12.05;;;5.00;;
78148;SDS011;67396;42.664;23.382;2023-09-19T09:24:54;9.10;;;4.82;;
78148;SDS011;67396;42.664;23.382;2023-09-19T09:27:24;13.45;;;4.95;;
78148;SDS011;67396;42.664;23.382;2023-09-19T09:29:50;7.18;;;4.25;;
78148;SDS011;67396;42.664;23.382;2023-09-19T09:32:20;9.15;;;4.50;;
78148;SDS011;67396;42.664;23.382;2023-09-19T09:34:53;8.93;;;4.63;;
78148;SDS011;67396;42.664;23.382;2023-09-19T09:37:19;8.77;;;4.80;;
78148;SDS011;67396;42.664;23.382;2023-09-19T09:39:57;6.18;;;4.40;;
78148;SDS011;67396;42.664;23.382;2023-09-19T09:42:41;7.13;;;4.70;;
78148;SDS011;67396;42.664;23.382;2023-09-19T09:47:59;12.15;;;4.88;;
78148;SDS011;67396;42.664;23.382;2023-09-19T09:53:28;8.25;;;4.35;;
78148;SDS011;67396;42.664;23.382;2023-09-19T09:56:06;8.73;;;4.57;;
78148;SDS011;67396;42.664;23.382;2023-09-19T09:58:50;7.20;;;4.07;;
78148;SDS011;67396;42.664;23.382;2023-09-19T10:01:20;8.25;;;4.72;;
78148;SDS011;67396;42.664;23.382;2023-09-19T10:03:46;7.75;;;4.40;;
78148;SDS011;67396;42.664;23.382;2023-09-19T10:06:15;9.77;;;4.63;;
78148;SDS011;67396;42.664;23.382;2023-09-19T10:14:12;10.25;;;4.85;;
78148;SDS011;67396;42.664;23.382;2023-09-19T10:16:40;9.77;;;5.10;;
78148;SDS011;67396;42.664;23.382;2023-09-19T10:19:19;13.38;;;5.32;;
78148;SDS011;67396;42.664;23.382;2023-09-19T10:21:49;8.68;;;4.72;;
78148;SDS011;67396;42.664;23.382;2023-09-19T10:24:16;8.73;;;5.20;;
78148;SDS011;67396;42.664;23.382;2023-09-19T10:26:45;10.40;;;5.00;;
78148;SDS011;67396;42.664;23.382;2023-09-19T10:29:13;11.02;;;4.72;;
78148;SDS011;67396;42.664;23.382;2023-09-19T10:31:41;14.18;;;4.80;;
78148;SDS011;67396;42.664;23.382;2023-09-19T10:34:12;10.20;;;4.68;;
78148;SDS011;67396;42.664;23.382;2023-09-19T10:36:45;11.88;;;5.35;;
78148;SDS011;67396;42.664;23.382;2023-09-19T10:39:15;8.35;;;4.57;;
78148;SDS011;67396;42.664;23.382;2023-09-19T10:41:44;14.20;;;5.65;;
78148;SDS011;67396;42.664;23.382;2023-09-19T10:44:19;9.10;;;5.20;;
78148;SDS011;67396;42.664;23.382;2023-09-19T10:46:48;8.35;;;4.72;;
78148;SDS011;67396;42.664;23.382;2023-09-19T10:49:15;10.35;;;5.47;;
78148;SDS011;67396;42.664;23.382;2023-09-19T10:51:41;8.48;;;4.95;;
78148;SDS011;67396;42.664;23.382;2023-09-19T10:54:13;10.13;;;5.30;;
78148;SDS011;67396;42.664;23.382;2023-09-19T10:56:43;8.55;;;5.35;;
78148;SDS011;67396;42.664;23.382;2023-09-19T10:59:17;11.32;;;5.15;;
78148;SDS011;67396;42.664;23.382;2023-09-19T11:01:50;8.02;;;5.25;;
78148;SDS011;67396;42.664;23.382;2023-09-19T11:04:24;8.75;;;4.97;;
78148;SDS011;67396;42.664;23.382;2023-09-19T11:07:08;6.97;;;4.82;;
78148;SDS011;67396;42.664;23.382;2023-09-19T11:14:54;9.68;;;4.78;;
78148;SDS011;67396;42.664;23.382;2023-09-19T11:30:34;8.70;;;5.70;;
78148;SDS011;67396;42.664;23.382;2023-09-19T11:33:20;8.13;;;5.40;;
78148;SDS011;67396;42.664;23.382;2023-09-19T11:46:51;23.52;;;12.93;;
78148;SDS011;67396;42.664;23.382;2023-09-19T11:49:26;9.23;;;5.95;;
78148;SDS011;67396;42.664;23.382;2023-09-19T11:51:57;9.93;;;4.60;;
78148;SDS011;67396;42.664;23.382;2023-09-19T11:54:30;9.88;;;4.85;;
78148;SDS011;67396;42.664;23.382;2023-09-19T11:57:00;9.02;;;5.25;;
78148;SDS011;67396;42.664;23.382;2023-09-19T11:59:26;8.40;;;4.93;;
78148;SDS011;67396;42.664;23.382;2023-09-19T12:02:01;7.90;;;5.30;;
78148;SDS011;67396;42.664;23.382;2023-09-19T12:04:33;10.30;;;4.93;;
78148;SDS011;67396;42.664;23.382;2023-09-19T12:07:13;6.25;;;5.32;;
78148;SDS011;67396;42.664;23.382;2023-09-19T12:09:51;9.00;;;4.97;;
78148;SDS011;67396;42.664;23.382;2023-09-19T12:12:31;8.60;;;4.50;;
78148;SDS011;67396;42.664;23.382;2023-09-19T12:14:58;6.45;;;5.05;;
78148;SDS011;67396;42.664;23.382;2023-09-19T12:17:40;10.25;;;4.95;;
78148;SDS011;67396;42.664;23.382;2023-09-19T12:20:10;11.05;;;5.57;;
78148;SDS011;67396;42.664;23.382;2023-09-19T12:22:44;10.48;;;4.50;;
78148;SDS011;67396;42.664;23.382;2023-09-19T12:25:11;9.38;;;5.80;;
78148;SDS011;67396;42.664;23.382;2023-09-19T12:27:48;8.77;;;5.07;;
78148;SDS011;67396;42.664;23.382;2023-09-19T12:30:21;9.02;;;5.63;;
78148;SDS011;67396;42.664;23.382;2023-09-19T12:32:52;6.95;;;5.20;;
78148;SDS011;67396;42.664;23.382;2023-09-19T12:35:28;9.65;;;4.68;;
78148;SDS011;67396;42.664;23.382;2023-09-19T12:37:55;9.30;;;5.40;;
78148;SDS011;67396;42.664;23.382;2023-09-19T12:40:22;9.50;;;5.40;;
78148;SDS011;67396;42.664;23.382;2023-09-19T12:42:53;12.10;;;4.72;;
78148;SDS011;67396;42.664;23.382;2023-09-19T12:48:31;7.95;;;4.95;;
78148;SDS011;67396;42.664;23.382;2023-09-19T12:53:38;7.68;;;4.85;;
78148;SDS011;67396;42.664;23.382;2023-09-19T12:56:11;13.65;;;5.95;;
78148;SDS011;67396;42.664;23.382;2023-09-19T12:58:58;15.35;;;5.90;;
78148;SDS011;67396;42.664;23.382;2023-09-19T13:01:28;8.85;;;5.28;;
78148;SDS011;67396;42.664;23.382;2023-09-19T13:06:45;8.07;;;4.93;;
78148;SDS011;67396;42.664;23.382;2023-09-19T13:09:14;13.50;;;5.47;;
78148;SDS011;67396;42.664;23.382;2023-09-19T13:11:41;6.63;;;4.75;;
78148;SDS011;67396;42.664;23.382;2023-09-19T13:16:56;7.97;;;5.70;;
78148;SDS011;67396;42.664;23.382;2023-09-19T13:19:48;10.75;;;5.28;;
78148;SDS011;67396;42.664;23.382;2023-09-19T13:25:15;11.18;;;5.75;;
78148;SDS011;67396;42.664;23.382;2023-09-19T13:27:46;9.32;;;5.68;;
78148;SDS011;67396;42.664;23.382;2023-09-19T13:30:17;8.05;;;5.50;;
78148;SDS011;67396;42.664;23.382;2023-09-19T13:32:43;11.02;;;5.57;;
78148;SDS011;67396;42.664;23.382;2023-09-19T13:35:09;8.95;;;5.60;;
78148;SDS011;67396;42.664;23.382;2023-09-19T13:37:35;7.68;;;5.63;;
78148;SDS011;67396;42.664;23.382;2023-09-19T13:40:04;12.20;;;6.65;;
78148;SDS011;67396;42.664;23.382;2023-09-19T13:42:30;9.88;;;5.40;;
78148;SDS011;67396;42.664;23.382;2023-09-19T13:44:56;6.60;;;5.63;;
78148;SDS011;67396;42.664;23.382;2023-09-19T13:47:22;6.88;;;5.38;;
78148;SDS011;67396;42.664;23.382;2023-09-19T13:49:49;13.63;;;6.45;;
78148;SDS011;67396;42.664;23.382;2023-09-19T13:52:21;8.70;;;5.78;;
78148;SDS011;67396;42.664;23.382;2023-09-19T13:54:48;10.10;;;6.60;;
78148;SDS011;67396;42.664;23.382;2023-09-19T13:57:15;8.98;;;6.45;;
78148;SDS011;67396;42.664;23.382;2023-09-19T13:59:41;10.57;;;6.22;;
78148;SDS011;67396;42.664;23.382;2023-09-19T14:02:07;13.45;;;6.00;;
78148;SDS011;67396;42.664;23.382;2023-09-19T14:04:32;8.27;;;4.97;;
78148;SDS011;67396;42.664;23.382;2023-09-19T14:06:59;11.57;;;5.28;;
78148;SDS011;67396;42.664;23.382;2023-09-19T14:09:26;7.95;;;5.68;;
78148;SDS011;67396;42.664;23.382;2023-09-19T14:11:52;7.63;;;5.45;;
78148;SDS011;67396;42.664;23.382;2023-09-19T14:14:20;8.00;;;5.53;;
78148;SDS011;67396;42.664;23.382;2023-09-19T14:16:47;11.77;;;5.65;;
78148;SDS011;67396;42.664;23.382;2023-09-19T14:19:12;7.80;;;4.72;;
78148;SDS011;67396;42.664;23.382;2023-09-19T14:21:40;9.00;;;5.28;;
78148;SDS011;67396;42.664;23.382;2023-09-19T14:24:05;6.88;;;4.90;;
78148;SDS011;67396;42.664;23.382;2023-09-19T14:26:34;9.82;;;5.97;;
78148;SDS011;67396;42.664;23.382;2023-09-19T14:29:03;9.48;;;5.72;;
78148;SDS011;67396;42.664;23.382;2023-09-19T14:31:32;7.55;;;5.22;;
78148;SDS011;67396;42.664;23.382;2023-09-19T14:33:58;11.38;;;5.90;;
78148;SDS011;67396;42.664;23.382;2023-09-19T14:36:24;7.28;;;5.18;;
78148;SDS011;67396;42.664;23.382;2023-09-19T14:38:54;10.18;;;5.78;;
78148;SDS011;67396;42.664;23.382;2023-09-19T14:41:20;8.05;;;5.63;;
78148;SDS011;67396;42.664;23.382;2023-09-19T14:43:47;7.30;;;5.47;;
78148;SDS011;67396;42.664;23.382;2023-09-19T14:46:15;9.00;;;5.55;;
78148;SDS011;67396;42.664;23.382;2023-09-19T14:48:41;9.75;;;5.80;;
78148;SDS011;67396;42.664;23.382;2023-09-19T14:51:07;12.23;;;6.88;;
78148;SDS011;67396;42.664;23.382;2023-09-19T14:53:37;11.13;;;5.63;;
78148;SDS011;67396;42.664;23.382;2023-09-19T14:56:03;9.90;;;5.82;;
78148;SDS011;67396;42.664;23.382;2023-09-19T14:58:30;9.32;;;5.72;;
78148;SDS011;67396;42.664;23.382;2023-09-19T15:01:05;9.23;;;5.60;;
78148;SDS011;67396;42.664;23.382;2023-09-19T15:03:32;8.65;;;5.35;;
78148;SDS011;67396;42.664;23.382;2023-09-19T15:06:02;10.98;;;5.95;;
78148;SDS011;67396;42.664;23.382;2023-09-19T15:08:32;13.68;;;5.25;;
78148;SDS011;67396;42.664;23.382;2023-09-19T15:11:00;8.55;;;5.65;;
78148;SDS011;67396;42.664;23.382;2023-09-19T15:13:30;10.68;;;5.20;;
78148;SDS011;67396;42.664;23.382;2023-09-19T15:16:03;11.20;;;6.60;;
78148;SDS011;67396;42.664;23.382;2023-09-19T15:18:38;10.20;;;5.72;;
78148;SDS011;67396;42.664;23.382;2023-09-19T15:21:09;10.73;;;6.28;;
78148;SDS011;67396;42.664;23.382;2023-09-19T15:23:36;9.57;;;5.68;;
78148;SDS011;67396;42.664;23.382;2023-09-19T15:26:04;12.20;;;5.95;;
78148;SDS011;67396;42.664;23.382;2023-09-19T15:28:30;10.77;;;5.88;;
78148;SDS011;67396;42.664;23.382;2023-09-19T15:33:36;8.77;;;5.63;;
78148;SDS011;67396;42.664;23.382;2023-09-19T15:38:31;7.93;;;5.53;;
78148;SDS011;67396;42.664;23.382;2023-09-19T15:41:21;10.95;;;6.03;;
78148;SDS011;67396;42.664;23.382;2023-09-19T15:43:46;10.85;;;6.00;;
78148;SDS011;67396;42.664;23.382;2023-09-19T15:46:12;8.90;;;5.35;;
78148;SDS011;67396;42.664;23.382;2023-09-19T15:48:38;10.75;;;5.53;;
78148;SDS011;67396;42.664;23.382;2023-09-19T15:51:04;8.43;;;4.72;;
78148;SDS011;67396;42.664;23.382;2023-09-19T15:53:43;9.10;;;5.57;;
78148;SDS011;67396;42.664;23.382;2023-09-19T15:56:10;8.85;;;4.72;;